sensor_id;sensor_type;location;lat;lon;timestamp;P1;durP1;ratioP1;P2;durP2;ratioP2
4057;SDS011;2044;48.692;9.020;2022-08-11T00:02:15;9.70;;;9.30;;
4057;SDS011;2044;48.692;9.020;2022-08-11T00:04:52;9.40;;;9.00;;
4057;SDS011;2044;48.692;9.020;2022-08-11T00:07:20;10.10;;;9.50;;
4057;SDS011;2044;48.692;9.020;2022-08-11T00:09:49;10.10;;;9.60;;
4057;SDS011;2044;48.692;9.020;2022-08-11T00:12:17;10.60;;;9.73;;
4057;SDS011;2044;48.692;9.020;2022-08-11T00:14:44;10.10;;;9.50;;
4057;SDS011;2044;48.692;9.020;2022-08-11T00:17:20;10.07;;;9.27;;
4057;SDS011;2044;48.692;9.020;2022-08-11T00:19:59;10.10;;;9.60;;
4057;SDS011;2044;48.692;9.020;2022-08-11T00:22:28;10.00;;;9.50;;
4057;SDS011;2044;48.692;9.020;2022-08-11T00:24:55;9.77;;;9.27;;
4057;SDS011;2044;48.692;9.020;2022-08-11T00:27:30;10.33;;;9.50;;
4057;SDS011;2044;48.692;9.020;2022-08-11T00:29:58;9.60;;;9.10;;
4057;SDS011;2044;48.692;9.020;2022-08-11T00:32:25;9.80;;;9.30;;
4057;SDS011;2044;48.692;9.020;2022-08-11T00:34:52;9.60;;;8.90;;
4057;SDS011;2044;48.692;9.020;2022-08-11T00:37:21;9.60;;;9.00;;
4057;SDS011;2044;48.692;9.020;2022-08-11T00:39:49;9.57;;;9.17;;
4057;SDS011;2044;48.692;9.020;2022-08-11T00:42:23;9.47;;;8.97;;
4057;SDS011;2044;48.692;9.020;2022-08-11T00:44:59;9.67;;;9.17;;
4057;SDS011;2044;48.692;9.020;2022-08-11T00:47:34;10.10;;;9.60;;
4057;SDS011;2044;48.692;9.020;2022-08-11T00:50:14;9.60;;;9.10;;
4057;SDS011;2044;48.692;9.020;2022-08-11T00:52:50;10.23;;;9.73;;
4057;SDS011;2044;48.692;9.020;2022-08-11T00:55:35;9.90;;;9.40;;
4057;SDS011;2044;48.692;9.020;2022-08-11T01:01:47;10.63;;;10.10;;
4057;SDS011;2044;48.692;9.020;2022-08-11T01:04:31;10.50;;;10.00;;
4057;SDS011;2044;48.692;9.020;2022-08-11T01:07:36;10.60;;;9.90;;
4057;SDS011;2044;48.692;9.020;2022-08-11T01:10:36;9.90;;;9.40;;
4057;SDS011;2044;48.692;9.020;2022-08-11T01:44:44;10.33;;;9.73;;
4057;SDS011;2044;48.692;9.020;2022-08-11T01:47:32;10.63;;;9.83;;
4057;SDS011;2044;48.692;9.020;2022-08-11T01:50:22;10.00;;;9.50;;
4057;SDS011;2044;48.692;9.020;2022-08-11T01:53:04;10.43;;;9.73;;
4057;SDS011;2044;48.692;9.020;2022-08-11T01:55:42;9.70;;;9.20;;
4057;SDS011;2044;48.692;9.020;2022-08-11T01:58:27;10.27;;;9.77;;
4057;SDS011;2044;48.692;9.020;2022-08-11T02:01:01;9.47;;;8.87;;
4057;SDS011;2044;48.692;9.020;2022-08-11T02:03:38;9.63;;;9.13;;
4057;SDS011;2044;48.692;9.020;2022-08-11T02:06:13;10.07;;;9.50;;
4057;SDS011;2044;48.692;9.020;2022-08-11T02:09:08;10.03;;;9.43;;
4057;SDS011;2044;48.692;9.020;2022-08-11T02:11:44;9.90;;;9.40;;
4057;SDS011;2044;48.692;9.020;2022-08-11T02:14:14;9.43;;;8.83;;
4057;SDS011;2044;48.692;9.020;2022-08-11T02:16:47;9.93;;;9.43;;
4057;SDS011;2044;48.692;9.020;2022-08-11T02:19:25;9.90;;;9.40;;
4057;SDS011;2044;48.692;9.020;2022-08-11T02:22:22;9.90;;;9.20;;
4057;SDS011;2044;48.692;9.020;2022-08-11T02:25:21;9.90;;;9.00;;
4057;SDS011;2044;48.692;9.020;2022-08-11T02:27:54;8.80;;;8.40;;
4057;SDS011;2044;48.692;9.020;2022-08-11T02:30:30;9.20;;;8.70;;
4057;SDS011;2044;48.692;9.020;2022-08-11T02:33:07;9.63;;;9.03;;
4057;SDS011;2044;48.692;9.020;2022-08-11T02:35:54;9.13;;;8.53;;
4057;SDS011;2044;48.692;9.020;2022-08-11T02:38:27;9.20;;;8.70;;
4057;SDS011;2044;48.692;9.020;2022-08-11T02:41:04;8.70;;;8.00;;
4057;SDS011;2044;48.692;9.020;2022-08-11T02:43:51;9.27;;;8.60;;
4057;SDS011;2044;48.692;9.020;2022-08-11T02:46:35;8.60;;;8.10;;
4057;SDS011;2044;48.692;9.020;2022-08-11T02:49:10;8.70;;;8.30;;
4057;SDS011;2044;48.692;9.020;2022-08-11T02:52:17;8.70;;;8.20;;
4057;SDS011;2044;48.692;9.020;2022-08-11T02:54:52;8.53;;;8.03;;
4057;SDS011;2044;48.692;9.020;2022-08-11T02:57:34;8.63;;;8.13;;
4057;SDS011;2044;48.692;9.020;2022-08-11T03:00:06;8.50;;;7.80;;
4057;SDS011;2044;48.692;9.020;2022-08-11T03:05:48;8.10;;;7.60;;
4057;SDS011;2044;48.692;9.020;2022-08-11T03:08:24;8.10;;;7.60;;
4057;SDS011;2044;48.692;9.020;2022-08-11T03:11:02;8.23;;;7.63;;
4057;SDS011;2044;48.692;9.020;2022-08-11T03:13:58;8.63;;;7.90;;
4057;SDS011;2044;48.692;9.020;2022-08-11T03:16:55;8.83;;;8.07;;
4057;SDS011;2044;48.692;9.020;2022-08-11T03:19:28;8.37;;;7.87;;
4057;SDS011;2044;48.692;9.020;2022-08-11T03:22:04;8.13;;;7.70;;
4057;SDS011;2044;48.692;9.020;2022-08-11T03:24:43;7.90;;;7.40;;
4057;SDS011;2044;48.692;9.020;2022-08-11T03:27:23;9.03;;;8.53;;
4057;SDS011;2044;48.692;9.020;2022-08-11T03:30:02;8.70;;;8.10;;
4057;SDS011;2044;48.692;9.020;2022-08-11T03:32:36;9.00;;;8.30;;
4057;SDS011;2044;48.692;9.020;2022-08-11T03:35:31;8.80;;;8.40;;
4057;SDS011;2044;48.692;9.020;2022-08-11T03:38:03;9.40;;;8.80;;
4057;SDS011;2044;48.692;9.020;2022-08-11T03:40:40;9.17;;;8.57;;
4057;SDS011;2044;48.692;9.020;2022-08-11T03:43:36;9.63;;;8.97;;
4057;SDS011;2044;48.692;9.020;2022-08-11T03:46:19;9.07;;;8.57;;
4057;SDS011;2044;48.692;9.020;2022-08-11T03:48:55;8.40;;;7.90;;
4057;SDS011;2044;48.692;9.020;2022-08-11T03:51:31;7.97;;;7.47;;
4057;SDS011;2044;48.692;9.020;2022-08-11T03:54:24;7.63;;;7.23;;
4057;SDS011;2044;48.692;9.020;2022-08-11T03:57:21;8.33;;;7.50;;
4057;SDS011;2044;48.692;9.020;2022-08-11T04:00:18;7.20;;;6.70;;
4057;SDS011;2044;48.692;9.020;2022-08-11T04:03:18;6.93;;;6.33;;
4057;SDS011;2044;48.692;9.020;2022-08-11T04:09:22;6.80;;;6.23;;
4057;SDS011;2044;48.692;9.020;2022-08-11T04:12:18;7.70;;;7.00;;
4057;SDS011;2044;48.692;9.020;2022-08-11T04:15:03;7.60;;;6.80;;
4057;SDS011;2044;48.692;9.020;2022-08-11T04:21:08;7.00;;;6.30;;
4057;SDS011;2044;48.692;9.020;2022-08-11T04:23:49;7.33;;;6.83;;
4057;SDS011;2044;48.692;9.020;2022-08-11T04:26:47;6.57;;;6.17;;
4057;SDS011;2044;48.692;9.020;2022-08-11T04:29:33;6.93;;;6.33;;
4057;SDS011;2044;48.692;9.020;2022-08-11T04:32:18;7.07;;;6.37;;
4057;SDS011;2044;48.692;9.020;2022-08-11T04:35:00;12.97;;;6.00;;
4057;SDS011;2044;48.692;9.020;2022-08-11T04:37:49;6.63;;;6.03;;
4057;SDS011;2044;48.692;9.020;2022-08-11T04:40:39;6.93;;;6.53;;
4057;SDS011;2044;48.692;9.020;2022-08-11T04:43:30;6.27;;;5.87;;
4057;SDS011;2044;48.692;9.020;2022-08-11T04:46:25;6.90;;;6.40;;
4057;SDS011;2044;48.692;9.020;2022-08-11T04:49:17;7.13;;;6.53;;
4057;SDS011;2044;48.692;9.020;2022-08-11T04:52:33;7.33;;;6.63;;
4057;SDS011;2044;48.692;9.020;2022-08-11T04:55:53;8.17;;;7.37;;
4057;SDS011;2044;48.692;9.020;2022-08-11T04:59:04;7.30;;;6.80;;
4057;SDS011;2044;48.692;9.020;2022-08-11T05:02:09;8.27;;;7.63;;
4057;SDS011;2044;48.692;9.020;2022-08-11T05:04:57;8.00;;;7.20;;
4057;SDS011;2044;48.692;9.020;2022-08-11T05:11:23;9.03;;;8.43;;
4057;SDS011;2044;48.692;9.020;2022-08-11T05:14:24;9.10;;;8.50;;
4057;SDS011;2044;48.692;9.020;2022-08-11T05:17:13;9.57;;;8.97;;
4057;SDS011;2044;48.692;9.020;2022-08-11T05:20:07;10.17;;;9.47;;
4057;SDS011;2044;48.692;9.020;2022-08-11T05:22:52;10.27;;;9.57;;
4057;SDS011;2044;48.692;9.020;2022-08-11T05:25:36;9.53;;;9.00;;
4057;SDS011;2044;48.692;9.020;2022-08-11T05:28:31;10.00;;;9.50;;
4057;SDS011;2044;48.692;9.020;2022-08-11T05:31:18;10.20;;;9.60;;
4057;SDS011;2044;48.692;9.020;2022-08-11T05:34:08;9.90;;;9.40;;
4057;SDS011;2044;48.692;9.020;2022-08-11T05:36:56;10.60;;;9.83;;
4057;SDS011;2044;48.692;9.020;2022-08-11T05:39:30;10.40;;;9.63;;
4057;SDS011;2044;48.692;9.020;2022-08-11T05:42:16;10.20;;;9.70;;
4057;SDS011;2044;48.692;9.020;2022-08-11T05:45:08;10.50;;;9.90;;
4057;SDS011;2044;48.692;9.020;2022-08-11T05:47:55;10.80;;;10.27;;
4057;SDS011;2044;48.692;9.020;2022-08-11T05:50:41;11.10;;;10.30;;
4057;SDS011;2044;48.692;9.020;2022-08-11T05:53:33;11.43;;;10.63;;
4057;SDS011;2044;48.692;9.020;2022-08-11T05:56:17;10.80;;;10.20;;
4057;SDS011;2044;48.692;9.020;2022-08-11T05:58:46;10.77;;;10.17;;
4057;SDS011;2044;48.692;9.020;2022-08-11T06:01:21;11.00;;;10.20;;
4057;SDS011;2044;48.692;9.020;2022-08-11T06:03:50;10.60;;;10.10;;
4057;SDS011;2044;48.692;9.020;2022-08-11T06:06:36;11.00;;;10.50;;
4057;SDS011;2044;48.692;9.020;2022-08-11T06:09:05;11.57;;;10.77;;
4057;SDS011;2044;48.692;9.020;2022-08-11T06:11:36;11.27;;;10.67;;
4057;SDS011;2044;48.692;9.020;2022-08-11T06:14:04;11.40;;;10.50;;
4057;SDS011;2044;48.692;9.020;2022-08-11T06:16:33;10.90;;;10.20;;
4057;SDS011;2044;48.692;9.020;2022-08-11T06:19:00;11.67;;;10.87;;
4057;SDS011;2044;48.692;9.020;2022-08-11T06:21:28;10.60;;;10.10;;
4057;SDS011;2044;48.692;9.020;2022-08-11T06:24:00;11.80;;;11.00;;
4057;SDS011;2044;48.692;9.020;2022-08-11T06:26:29;11.20;;;10.50;;
4057;SDS011;2044;48.692;9.020;2022-08-11T06:28:56;11.20;;;10.50;;
4057;SDS011;2044;48.692;9.020;2022-08-11T06:31:25;11.27;;;10.53;;
4057;SDS011;2044;48.692;9.020;2022-08-11T06:33:56;11.80;;;11.10;;
4057;SDS011;2044;48.692;9.020;2022-08-11T06:36:37;12.30;;;11.50;;
4057;SDS011;2044;48.692;9.020;2022-08-11T06:39:12;11.27;;;10.67;;
4057;SDS011;2044;48.692;9.020;2022-08-11T06:41:47;11.70;;;10.90;;
4057;SDS011;2044;48.692;9.020;2022-08-11T06:44:20;11.23;;;10.63;;
4057;SDS011;2044;48.692;9.020;2022-08-11T06:46:52;11.80;;;10.97;;
4057;SDS011;2044;48.692;9.020;2022-08-11T06:49:31;12.33;;;11.37;;
4057;SDS011;2044;48.692;9.020;2022-08-11T06:52:18;11.90;;;11.30;;
4057;SDS011;2044;48.692;9.020;2022-08-11T06:54:53;12.20;;;11.37;;
4057;SDS011;2044;48.692;9.020;2022-08-11T06:57:22;12.03;;;11.20;;
4057;SDS011;2044;48.692;9.020;2022-08-11T07:00:07;11.20;;;10.50;;
4057;SDS011;2044;48.692;9.020;2022-08-11T07:02:53;11.60;;;11.00;;
4057;SDS011;2044;48.692;9.020;2022-08-11T07:05:27;11.83;;;11.23;;
4057;SDS011;2044;48.692;9.020;2022-08-11T07:14:46;12.00;;;11.30;;
4057;SDS011;2044;48.692;9.020;2022-08-11T07:17:34;11.37;;;10.77;;
4057;SDS011;2044;48.692;9.020;2022-08-11T07:20:07;12.50;;;11.60;;
4057;SDS011;2044;48.692;9.020;2022-08-11T07:22:57;13.03;;;12.00;;
4057;SDS011;2044;48.692;9.020;2022-08-11T07:25:43;11.50;;;10.87;;
4057;SDS011;2044;48.692;9.020;2022-08-11T07:28:32;11.20;;;10.60;;
4057;SDS011;2044;48.692;9.020;2022-08-11T07:31:20;11.60;;;11.00;;
4057;SDS011;2044;48.692;9.020;2022-08-11T07:33:56;11.60;;;10.90;;
4057;SDS011;2044;48.692;9.020;2022-08-11T07:36:29;11.23;;;10.73;;
4057;SDS011;2044;48.692;9.020;2022-08-11T07:38:57;11.77;;;11.13;;
4057;SDS011;2044;48.692;9.020;2022-08-11T07:41:25;10.80;;;10.30;;
4057;SDS011;2044;48.692;9.020;2022-08-11T07:43:57;11.30;;;10.50;;
4057;SDS011;2044;48.692;9.020;2022-08-11T07:46:33;11.70;;;10.70;;
4057;SDS011;2044;48.692;9.020;2022-08-11T07:49:18;11.67;;;10.90;;
4057;SDS011;2044;48.692;9.020;2022-08-11T07:52:02;10.07;;;9.43;;
4057;SDS011;2044;48.692;9.020;2022-08-11T07:54:48;11.17;;;10.47;;
4057;SDS011;2044;48.692;9.020;2022-08-11T07:57:15;11.20;;;10.40;;
4057;SDS011;2044;48.692;9.020;2022-08-11T08:00:00;10.90;;;10.40;;
4057;SDS011;2044;48.692;9.020;2022-08-11T08:02:44;10.57;;;9.97;;
4057;SDS011;2044;48.692;9.020;2022-08-11T08:05:28;11.57;;;10.83;;
4057;SDS011;2044;48.692;9.020;2022-08-11T08:08:14;11.07;;;10.57;;
4057;SDS011;2044;48.692;9.020;2022-08-11T08:11:00;11.83;;;11.13;;
4057;SDS011;2044;48.692;9.020;2022-08-11T08:13:44;12.33;;;11.63;;
4057;SDS011;2044;48.692;9.020;2022-08-11T08:16:29;12.07;;;11.20;;
4057;SDS011;2044;48.692;9.020;2022-08-11T08:19:15;11.60;;;11.00;;
4057;SDS011;2044;48.692;9.020;2022-08-11T08:21:44;10.73;;;10.03;;
4057;SDS011;2044;48.692;9.020;2022-08-11T08:24:12;10.90;;;10.30;;
4057;SDS011;2044;48.692;9.020;2022-08-11T08:26:42;11.87;;;11.20;;
4057;SDS011;2044;48.692;9.020;2022-08-11T08:29:25;11.40;;;10.60;;
4057;SDS011;2044;48.692;9.020;2022-08-11T08:32:11;11.83;;;10.97;;
4057;SDS011;2044;48.692;9.020;2022-08-11T08:34:40;10.93;;;10.10;;
4057;SDS011;2044;48.692;9.020;2022-08-11T08:37:07;11.37;;;10.60;;
4057;SDS011;2044;48.692;9.020;2022-08-11T08:39:34;11.00;;;10.13;;
4057;SDS011;2044;48.692;9.020;2022-08-11T08:42:05;10.73;;;10.03;;
4057;SDS011;2044;48.692;9.020;2022-08-11T08:44:38;10.50;;;9.80;;
4057;SDS011;2044;48.692;9.020;2022-08-11T08:47:08;11.03;;;10.43;;
4057;SDS011;2044;48.692;9.020;2022-08-11T08:49:43;10.77;;;9.97;;
4057;SDS011;2044;48.692;9.020;2022-08-11T08:52:13;10.97;;;10.37;;
4057;SDS011;2044;48.692;9.020;2022-08-11T08:54:43;11.03;;;10.43;;
4057;SDS011;2044;48.692;9.020;2022-08-11T08:57:14;9.73;;;9.17;;
4057;SDS011;2044;48.692;9.020;2022-08-11T08:59:45;10.40;;;9.90;;
4057;SDS011;2044;48.692;9.020;2022-08-11T09:02:13;11.33;;;10.53;;
4057;SDS011;2044;48.692;9.020;2022-08-11T09:04:42;10.93;;;10.23;;
4057;SDS011;2044;48.692;9.020;2022-08-11T09:07:11;10.07;;;9.30;;
4057;SDS011;2044;48.692;9.020;2022-08-11T09:09:40;10.30;;;9.70;;
4057;SDS011;2044;48.692;9.020;2022-08-11T09:12:08;10.10;;;9.40;;
4057;SDS011;2044;48.692;9.020;2022-08-11T09:14:38;10.10;;;9.50;;
4057;SDS011;2044;48.692;9.020;2022-08-11T09:17:28;9.83;;;9.23;;
4057;SDS011;2044;48.692;9.020;2022-08-11T09:19:57;9.80;;;9.20;;
4057;SDS011;2044;48.692;9.020;2022-08-11T09:22:26;9.30;;;8.80;;
4057;SDS011;2044;48.692;9.020;2022-08-11T09:25:11;10.20;;;9.70;;
4057;SDS011;2044;48.692;9.020;2022-08-11T09:27:57;10.23;;;9.73;;
4057;SDS011;2044;48.692;9.020;2022-08-11T09:30:26;10.20;;;9.70;;
4057;SDS011;2044;48.692;9.020;2022-08-11T09:32:54;10.60;;;9.97;;
4057;SDS011;2044;48.692;9.020;2022-08-11T09:35:22;9.60;;;9.10;;
4057;SDS011;2044;48.692;9.020;2022-08-11T09:37:52;10.30;;;9.80;;
4057;SDS011;2044;48.692;9.020;2022-08-11T09:40:38;10.63;;;10.03;;
4057;SDS011;2044;48.692;9.020;2022-08-11T09:43:09;10.70;;;10.00;;
4057;SDS011;2044;48.692;9.020;2022-08-11T09:45:57;10.37;;;9.77;;
4057;SDS011;2044;48.692;9.020;2022-08-11T09:48:25;10.57;;;9.87;;
4057;SDS011;2044;48.692;9.020;2022-08-11T09:51:01;9.53;;;9.03;;
4057;SDS011;2044;48.692;9.020;2022-08-11T09:53:29;9.80;;;9.20;;
4057;SDS011;2044;48.692;9.020;2022-08-11T09:55:58;9.87;;;9.33;;
4057;SDS011;2044;48.692;9.020;2022-08-11T09:58:46;10.07;;;9.57;;
4057;SDS011;2044;48.692;9.020;2022-08-11T10:01:14;10.37;;;9.47;;
4057;SDS011;2044;48.692;9.020;2022-08-11T10:03:52;9.40;;;8.90;;
4057;SDS011;2044;48.692;9.020;2022-08-11T10:06:22;9.90;;;9.50;;
4057;SDS011;2044;48.692;9.020;2022-08-11T10:09:08;9.63;;;9.13;;
4057;SDS011;2044;48.692;9.020;2022-08-11T10:11:35;10.50;;;9.60;;
4057;SDS011;2044;48.692;9.020;2022-08-11T10:14:03;9.53;;;9.00;;
4057;SDS011;2044;48.692;9.020;2022-08-11T10:16:47;10.57;;;10.07;;
4057;SDS011;2044;48.692;9.020;2022-08-11T10:19:16;11.30;;;10.40;;
4057;SDS011;2044;48.692;9.020;2022-08-11T10:21:46;10.10;;;9.50;;
4057;SDS011;2044;48.692;9.020;2022-08-11T10:24:35;10.90;;;10.40;;
4057;SDS011;2044;48.692;9.020;2022-08-11T10:27:20;11.00;;;10.50;;
4057;SDS011;2044;48.692;9.020;2022-08-11T10:29:48;10.93;;;10.37;;
4057;SDS011;2044;48.692;9.020;2022-08-11T10:32:34;9.80;;;9.40;;
4057;SDS011;2044;48.692;9.020;2022-08-11T10:35:20;10.53;;;9.73;;
4057;SDS011;2044;48.692;9.020;2022-08-11T10:37:50;10.13;;;9.53;;
4057;SDS011;2044;48.692;9.020;2022-08-11T10:40:18;10.67;;;10.07;;
4057;SDS011;2044;48.692;9.020;2022-08-11T10:42:48;10.60;;;9.80;;
4057;SDS011;2044;48.692;9.020;2022-08-11T10:45:27;9.50;;;9.00;;
4057;SDS011;2044;48.692;9.020;2022-08-11T10:48:14;8.73;;;8.23;;
4057;SDS011;2044;48.692;9.020;2022-08-11T10:50:45;10.60;;;9.80;;
4057;SDS011;2044;48.692;9.020;2022-08-11T10:53:40;10.33;;;9.60;;
4057;SDS011;2044;48.692;9.020;2022-08-11T10:56:26;9.90;;;9.30;;
4057;SDS011;2044;48.692;9.020;2022-08-11T10:59:13;10.20;;;9.60;;
4057;SDS011;2044;48.692;9.020;2022-08-11T11:01:41;9.30;;;8.80;;
4057;SDS011;2044;48.692;9.020;2022-08-11T11:04:12;10.30;;;9.60;;
4057;SDS011;2044;48.692;9.020;2022-08-11T11:06:45;10.43;;;9.73;;
4057;SDS011;2044;48.692;9.020;2022-08-11T11:09:17;10.20;;;9.37;;
4057;SDS011;2044;48.692;9.020;2022-08-11T11:11:49;9.70;;;9.20;;
4057;SDS011;2044;48.692;9.020;2022-08-11T11:14:36;9.70;;;9.20;;
4057;SDS011;2044;48.692;9.020;2022-08-11T11:17:27;9.93;;;9.37;;
4057;SDS011;2044;48.692;9.020;2022-08-11T11:20:16;9.97;;;9.47;;
4057;SDS011;2044;48.692;9.020;2022-08-11T11:22:46;9.77;;;9.37;;
4057;SDS011;2044;48.692;9.020;2022-08-11T11:25:19;9.97;;;9.47;;
4057;SDS011;2044;48.692;9.020;2022-08-11T11:30:43;8.97;;;8.53;;
4057;SDS011;2044;48.692;9.020;2022-08-11T11:33:20;8.83;;;8.40;;
4057;SDS011;2044;48.692;9.020;2022-08-11T11:35:56;9.17;;;8.67;;
4057;SDS011;2044;48.692;9.020;2022-08-11T11:38:35;9.07;;;8.67;;
4057;SDS011;2044;48.692;9.020;2022-08-11T11:41:02;9.80;;;9.30;;
4057;SDS011;2044;48.692;9.020;2022-08-11T11:43:47;9.90;;;9.30;;
4057;SDS011;2044;48.692;9.020;2022-08-11T11:46:13;9.87;;;9.20;;
4057;SDS011;2044;48.692;9.020;2022-08-11T11:48:42;9.20;;;8.80;;
4057;SDS011;2044;48.692;9.020;2022-08-11T11:51:11;8.90;;;8.50;;
4057;SDS011;2044;48.692;9.020;2022-08-11T11:53:38;9.30;;;8.90;;
4057;SDS011;2044;48.692;9.020;2022-08-11T11:56:09;9.80;;;9.20;;
4057;SDS011;2044;48.692;9.020;2022-08-11T11:58:37;9.67;;;9.17;;
4057;SDS011;2044;48.692;9.020;2022-08-11T12:01:22;9.83;;;9.20;;
4057;SDS011;2044;48.692;9.020;2022-08-11T12:03:51;9.73;;;9.13;;
4057;SDS011;2044;48.692;9.020;2022-08-11T12:06:20;9.43;;;8.93;;
4057;SDS011;2044;48.692;9.020;2022-08-11T12:08:49;9.40;;;9.00;;
4057;SDS011;2044;48.692;9.020;2022-08-11T12:11:18;8.90;;;8.40;;
4057;SDS011;2044;48.692;9.020;2022-08-11T12:14:04;8.47;;;8.13;;
4057;SDS011;2044;48.692;9.020;2022-08-11T12:16:32;9.17;;;8.57;;
4057;SDS011;2044;48.692;9.020;2022-08-11T12:19:02;9.40;;;8.90;;
4057;SDS011;2044;48.692;9.020;2022-08-11T12:21:33;9.13;;;8.70;;
4057;SDS011;2044;48.692;9.020;2022-08-11T12:24:01;8.17;;;7.70;;
4057;SDS011;2044;48.692;9.020;2022-08-11T12:26:46;8.80;;;8.40;;
4057;SDS011;2044;48.692;9.020;2022-08-11T12:29:31;9.03;;;8.63;;
4057;SDS011;2044;48.692;9.020;2022-08-11T12:31:58;8.67;;;8.10;;
4057;SDS011;2044;48.692;9.020;2022-08-11T12:34:26;8.50;;;8.10;;
4057;SDS011;2044;48.692;9.020;2022-08-11T12:36:55;8.57;;;8.17;;
4057;SDS011;2044;48.692;9.020;2022-08-11T12:39:24;8.93;;;8.30;;
4057;SDS011;2044;48.692;9.020;2022-08-11T12:42:07;7.70;;;7.40;;
4057;SDS011;2044;48.692;9.020;2022-08-11T12:44:53;8.63;;;8.33;;
4057;SDS011;2044;48.692;9.020;2022-08-11T12:47:39;9.10;;;8.70;;
4057;SDS011;2044;48.692;9.020;2022-08-11T12:50:23;9.00;;;8.50;;
4057;SDS011;2044;48.692;9.020;2022-08-11T12:53:09;8.90;;;8.40;;
4057;SDS011;2044;48.692;9.020;2022-08-11T12:55:37;8.80;;;8.33;;
4057;SDS011;2044;48.692;9.020;2022-08-11T12:58:24;8.47;;;8.07;;
4057;SDS011;2044;48.692;9.020;2022-08-11T13:00:52;8.37;;;7.87;;
4057;SDS011;2044;48.692;9.020;2022-08-11T13:03:36;8.83;;;8.33;;
4057;SDS011;2044;48.692;9.020;2022-08-11T13:06:22;7.97;;;7.50;;
4057;SDS011;2044;48.692;9.020;2022-08-11T13:08:50;8.90;;;8.40;;
4057;SDS011;2044;48.692;9.020;2022-08-11T13:11:18;8.37;;;7.97;;
4057;SDS011;2044;48.692;9.020;2022-08-11T13:14:03;8.70;;;8.30;;
4057;SDS011;2044;48.692;9.020;2022-08-11T13:16:31;9.20;;;8.50;;
4057;SDS011;2044;48.692;9.020;2022-08-11T13:19:20;7.70;;;7.40;;
4057;SDS011;2044;48.692;9.020;2022-08-11T13:21:48;8.40;;;7.80;;
4057;SDS011;2044;48.692;9.020;2022-08-11T13:24:17;9.00;;;8.20;;
4057;SDS011;2044;48.692;9.020;2022-08-11T13:26:45;9.30;;;8.67;;
4057;SDS011;2044;48.692;9.020;2022-08-11T13:29:14;8.30;;;8.00;;
4057;SDS011;2044;48.692;9.020;2022-08-11T13:31:45;7.93;;;7.63;;
4057;SDS011;2044;48.692;9.020;2022-08-11T13:34:12;8.30;;;7.90;;
4057;SDS011;2044;48.692;9.020;2022-08-11T13:36:40;9.20;;;8.40;;
4057;SDS011;2044;48.692;9.020;2022-08-11T13:39:08;8.80;;;8.40;;
4057;SDS011;2044;48.692;9.020;2022-08-11T13:41:37;8.07;;;7.67;;
4057;SDS011;2044;48.692;9.020;2022-08-11T13:44:09;8.80;;;8.30;;
4057;SDS011;2044;48.692;9.020;2022-08-11T13:46:38;8.53;;;8.07;;
4057;SDS011;2044;48.692;9.020;2022-08-11T13:49:07;9.00;;;8.40;;
4057;SDS011;2044;48.692;9.020;2022-08-11T13:51:35;9.17;;;8.67;;
4057;SDS011;2044;48.692;9.020;2022-08-11T13:54:04;8.73;;;8.13;;
4057;SDS011;2044;48.692;9.020;2022-08-11T13:56:33;8.50;;;8.10;;
4057;SDS011;2044;48.692;9.020;2022-08-11T13:59:05;8.30;;;7.90;;
4057;SDS011;2044;48.692;9.020;2022-08-11T14:01:34;8.73;;;8.03;;
4057;SDS011;2044;48.692;9.020;2022-08-11T14:04:05;8.40;;;7.77;;
4057;SDS011;2044;48.692;9.020;2022-08-11T14:06:34;7.93;;;7.43;;
4057;SDS011;2044;48.692;9.020;2022-08-11T14:09:06;8.20;;;7.70;;
4057;SDS011;2044;48.692;9.020;2022-08-11T14:11:34;7.90;;;7.30;;
4057;SDS011;2044;48.692;9.020;2022-08-11T14:14:22;8.00;;;7.60;;
4057;SDS011;2044;48.692;9.020;2022-08-11T14:16:53;7.83;;;7.30;;
4057;SDS011;2044;48.692;9.020;2022-08-11T14:19:22;7.90;;;7.40;;
4057;SDS011;2044;48.692;9.020;2022-08-11T14:21:50;8.13;;;7.73;;
4057;SDS011;2044;48.692;9.020;2022-08-11T14:24:35;8.17;;;7.80;;
4057;SDS011;2044;48.692;9.020;2022-08-11T14:27:03;7.97;;;7.57;;
4057;SDS011;2044;48.692;9.020;2022-08-11T14:29:32;8.40;;;7.90;;
4057;SDS011;2044;48.692;9.020;2022-08-11T14:32:03;8.37;;;7.87;;
4057;SDS011;2044;48.692;9.020;2022-08-11T14:34:31;8.27;;;7.67;;
4057;SDS011;2044;48.692;9.020;2022-08-11T14:37:01;8.30;;;7.93;;
4057;SDS011;2044;48.692;9.020;2022-08-11T14:39:31;7.70;;;7.30;;
4057;SDS011;2044;48.692;9.020;2022-08-11T14:42:01;8.20;;;7.80;;
4057;SDS011;2044;48.692;9.020;2022-08-11T14:44:49;8.70;;;8.20;;
4057;SDS011;2044;48.692;9.020;2022-08-11T14:47:36;7.97;;;7.63;;
4057;SDS011;2044;48.692;9.020;2022-08-11T14:50:05;8.40;;;8.00;;
4057;SDS011;2044;48.692;9.020;2022-08-11T14:52:33;7.40;;;7.10;;
4057;SDS011;2044;48.692;9.020;2022-08-11T14:55:01;7.47;;;7.17;;
4057;SDS011;2044;48.692;9.020;2022-08-11T14:57:45;7.80;;;7.40;;
4057;SDS011;2044;48.692;9.020;2022-08-11T15:00:16;8.00;;;7.70;;
4057;SDS011;2044;48.692;9.020;2022-08-11T15:02:44;8.13;;;7.73;;
4057;SDS011;2044;48.692;9.020;2022-08-11T15:05:30;7.90;;;7.50;;
4057;SDS011;2044;48.692;9.020;2022-08-11T15:07:58;7.90;;;7.50;;
4057;SDS011;2044;48.692;9.020;2022-08-11T15:10:26;8.33;;;7.90;;
4057;SDS011;2044;48.692;9.020;2022-08-11T15:12:53;8.50;;;7.97;;
4057;SDS011;2044;48.692;9.020;2022-08-11T15:15:21;8.10;;;7.80;;
4057;SDS011;2044;48.692;9.020;2022-08-11T15:18:09;7.57;;;7.27;;
4057;SDS011;2044;48.692;9.020;2022-08-11T15:20:38;7.60;;;7.20;;
4057;SDS011;2044;48.692;9.020;2022-08-11T15:23:23;8.20;;;7.50;;
4057;SDS011;2044;48.692;9.020;2022-08-11T15:26:17;7.97;;;7.57;;
4057;SDS011;2044;48.692;9.020;2022-08-11T15:29:09;7.47;;;7.00;;
4057;SDS011;2044;48.692;9.020;2022-08-11T15:31:57;7.60;;;7.20;;
4057;SDS011;2044;48.692;9.020;2022-08-11T15:34:41;7.13;;;6.80;;
4057;SDS011;2044;48.692;9.020;2022-08-11T15:37:28;7.60;;;7.30;;
4057;SDS011;2044;48.692;9.020;2022-08-11T15:40:02;7.53;;;7.23;;
4057;SDS011;2044;48.692;9.020;2022-08-11T15:42:54;8.13;;;7.30;;
4057;SDS011;2044;48.692;9.020;2022-08-11T15:45:42;7.23;;;6.73;;
4057;SDS011;2044;48.692;9.020;2022-08-11T15:48:17;7.30;;;7.00;;
4057;SDS011;2044;48.692;9.020;2022-08-11T15:50:51;7.47;;;7.07;;
4057;SDS011;2044;48.692;9.020;2022-08-11T15:53:23;7.17;;;6.80;;
4057;SDS011;2044;48.692;9.020;2022-08-11T15:55:53;7.63;;;7.33;;
4057;SDS011;2044;48.692;9.020;2022-08-11T15:58:21;7.27;;;6.83;;
4057;SDS011;2044;48.692;9.020;2022-08-11T16:01:08;7.30;;;7.00;;
4057;SDS011;2044;48.692;9.020;2022-08-11T16:03:53;7.43;;;7.13;;
4057;SDS011;2044;48.692;9.020;2022-08-11T16:06:39;7.87;;;7.37;;
4057;SDS011;2044;48.692;9.020;2022-08-11T16:09:10;7.57;;;7.17;;
4057;SDS011;2044;48.692;9.020;2022-08-11T16:11:39;7.90;;;7.40;;
4057;SDS011;2044;48.692;9.020;2022-08-11T16:14:08;7.83;;;7.43;;
4057;SDS011;2044;48.692;9.020;2022-08-11T16:16:54;8.00;;;7.53;;
4057;SDS011;2044;48.692;9.020;2022-08-11T16:19:26;7.90;;;7.50;;
4057;SDS011;2044;48.692;9.020;2022-08-11T16:21:59;7.87;;;7.37;;
4057;SDS011;2044;48.692;9.020;2022-08-11T16:24:26;7.43;;;7.13;;
4057;SDS011;2044;48.692;9.020;2022-08-11T16:26:54;7.80;;;7.43;;
4057;SDS011;2044;48.692;9.020;2022-08-11T16:29:23;7.83;;;7.40;;
4057;SDS011;2044;48.692;9.020;2022-08-11T16:31:52;8.20;;;7.80;;
4057;SDS011;2044;48.692;9.020;2022-08-11T16:34:38;7.20;;;6.83;;
4057;SDS011;2044;48.692;9.020;2022-08-11T16:37:24;8.17;;;7.50;;
4057;SDS011;2044;48.692;9.020;2022-08-11T16:40:10;7.93;;;7.40;;
4057;SDS011;2044;48.692;9.020;2022-08-11T16:42:38;7.90;;;7.50;;
4057;SDS011;2044;48.692;9.020;2022-08-11T16:45:24;7.27;;;6.87;;
4057;SDS011;2044;48.692;9.020;2022-08-11T16:48:09;8.30;;;7.57;;
4057;SDS011;2044;48.692;9.020;2022-08-11T16:50:38;8.10;;;7.40;;
4057;SDS011;2044;48.692;9.020;2022-08-11T16:53:07;7.50;;;7.10;;
4057;SDS011;2044;48.692;9.020;2022-08-11T16:55:33;7.40;;;7.00;;
4057;SDS011;2044;48.692;9.020;2022-08-11T16:58:01;7.57;;;7.23;;
4057;SDS011;2044;48.692;9.020;2022-08-11T17:00:46;8.30;;;7.63;;
4057;SDS011;2044;48.692;9.020;2022-08-11T17:03:15;8.57;;;8.07;;
4057;SDS011;2044;48.692;9.020;2022-08-11T17:06:03;8.63;;;8.10;;
4057;SDS011;2044;48.692;9.020;2022-08-11T17:08:50;7.80;;;7.50;;
4057;SDS011;2044;48.692;9.020;2022-08-11T17:11:37;7.73;;;7.33;;